Cherry, IL (61317)

1:28 AM CST en Marzo 06, 2015 (GMT -0600)
Illinois Valley Regional-Duncan | Change Station
CLOSE
Current Station
Aeropuerto
Location: Peru,
Altura: 653 ft
Estaciones meteorológicas cercanas

Alt 653 ft 41.35 °N, 89.15 °W | Updated 13 minutes ago

Despejado
Despejado
4 ° F
Sensación térmica -5 ° F
N
5
Viento Variable Viento desde SSO

Hoy
Alta -- | Baja -- ° F
--% Posibilidad de precipitaciones
Ayer
Alta -- | Baja -- ° F
Precip. -- pul
6:23 AM 5:53 PM
Luna llena, 100% visible
Presión 30.52 pul
Visibilidad 10.0 Millas
Nubes Despejado
Vientos helados -5 ° F
Punto de rocío -1 ° F
Humedad 80%
Precipitaciones 0.00 pul
Espesor de la nieve No disponible.
UV 0 de una escala de 12
Polen .50 de una escala de 12
Calidad del aire No disponible.
Flu Activity No disponible.
METAR KVYS 060715Z AUTO 20004KT 10SM CLR M15/M18 A3052 RMK AO2 T11551183

More Conditions Fewer Conditions

Presión 30.52 pul
Visibilidad 10.0 Millas
Nubes Despejado
Vientos helados -5 ° F
Punto de rocío -1 ° F
Humedad 80%
Precipitaciones 0.00 pul
Espesor de la nieve No disponible.
UV 0 de una escala de 12
Polen .50 de una escala de 12
Calidad del aire No disponible.
Flu Activity No disponible.
METAR KVYS 060715Z AUTO 20004KT 10SM CLR M15/M18 A3052 RMK AO2 T11551183

More Conditions Fewer Conditions

10-Day Weather Forecast

Almanac

Astronomía

Mar. 06, 2015 Salida Puesta
Hora real
Crepúsculo civil
Crepúsculo náutico
Crepúsculo astronómico
Luna
Horas de luz
Horas de luz
Tomorrow will be .
, % of the Moon is Illuminated

Extremos de hoy

Máximos del estado Bajos del estado

Community

WunderPhotos

Upload Photos

1,803,199 ¡fotos cargadas!

WunderBlogs® & News

Nearby

Calidad del aire

  Calidad del aire Índice AQ Contaminante
Not available.

Grosos de nieve

Estación Profundido Altura

Actividad de terremotos

Ciudad Distance Mag. Tiempo y dato
Magnitud mínima muestra es 2,5.

Temperaturas de aguas costeras

Lugar Temperatura

Estaciones meteorológicas cercanas